Time;durP1;ratioP1;P1;durP2;ratioP2;P2;SDS_P1;SDS_P2;PMS_P1;PMS_P2;Temp;Humidity;BMP_temperature;BMP_pressure;BME280_temperature;BME280_humidity;BME280_pressure;Samples;Min_cycle;Max_cycle;Signal;HPM_P1;HPM_P2
2023/03/22 00:00:55;;;;;;;1.20;0.50;;;12.10;99.90;;;;;;5090119;28;20020;-76
2023/03/22 00:03:22;;;;;;;2.20;0.63;;;12.10;99.90;;;;;;5089276;28;20035;-76
2023/03/22 00:05:48;;;;;;;1.08;0.40;;;12.10;99.90;;;;;;5089915;28;20839;-77
2023/03/22 00:08:14;;;;;;;0.93;0.38;;;12.00;99.90;;;;;;5089733;28;20028;-77
2023/03/22 00:10:40;;;;;;;3.30;0.65;;;11.90;99.90;;;;;;5089918;28;20484;-76
2023/03/22 00:13:08;;;;;;;1.38;0.47;;;11.90;99.90;;;;;;5088483;28;20112;-80
2023/03/22 00:15:35;;;;;;;2.15;0.52;;;11.80;99.90;;;;;;5092399;28;20032;-76
2023/03/22 00:18:02;;;;;;;0.95;0.50;;;11.80;99.90;;;;;;5094134;28;20028;-76
2023/03/22 00:20:32;;;;;;;2.17;0.77;;;11.80;99.90;;;;;;5093232;28;20023;-75
2023/03/22 00:22:59;;;;;;;2.42;0.75;;;11.80;99.90;;;;;;5093569;28;20020;-77
2023/03/22 00:25:24;;;;;;;3.53;0.80;;;11.80;99.90;;;;;;5093190;28;20036;-76
2023/03/22 00:27:50;;;;;;;4.93;0.70;;;11.90;99.90;;;;;;5093353;28;20051;-76
2023/03/22 00:30:16;;;;;;;2.38;0.85;;;11.90;99.90;;;;;;5093276;28;20378;-76
2023/03/22 00:32:42;;;;;;;5.47;1.10;;;11.90;99.90;;;;;;5093551;28;20064;-75
2023/03/22 00:35:09;;;;;;;3.88;1.60;;;11.90;99.90;;;;;;5092880;28;20063;-80
2023/03/22 00:37:37;;;;;;;3.72;1.10;;;12.00;99.90;;;;;;5093593;28;20437;-77
2023/03/22 00:40:08;;;;;;;4.88;1.15;;;12.10;99.90;;;;;;5093454;28;20036;-77
2023/03/22 00:42:38;;;;;;;7.78;1.70;;;12.10;99.90;;;;;;5092219;28;20505;-76
2023/03/22 00:45:06;;;;;;;4.03;1.23;;;12.10;99.90;;;;;;5093539;28;20539;-76
2023/03/22 00:47:32;;;;;;;3.88;1.23;;;11.90;99.90;;;;;;5093304;28;20016;-77
2023/03/22 00:49:57;;;;;;;4.15;1.45;;;11.90;99.90;;;;;;5093532;28;20024;-76
2023/03/22 00:52:24;;;;;;;3.97;1.58;;;11.90;99.90;;;;;;5093200;28;20459;-76
2023/03/22 00:54:50;;;;;;;2.20;1.08;;;11.80;99.90;;;;;;5093078;28;20040;-77
2023/03/22 00:57:16;;;;;;;3.60;1.13;;;11.80;99.90;;;;;;5092717;28;20026;-77
2023/03/22 00:59:42;;;;;;;1.02;0.88;;;11.80;99.90;;;;;;5093030;28;20383;-75
2023/03/22 01:02:12;;;;;;;3.60;0.90;;;11.80;99.90;;;;;;5091403;28;20081;-77
2023/03/22 01:04:48;;;;;;;5.75;1.20;;;11.80;99.90;;;;;;5112813;28;20032;-75
2023/03/22 01:07:20;;;;;;;6.78;1.90;;;11.70;99.90;;;;;;5114864;28;20054;-76
2023/03/22 01:09:50;;;;;;;4.45;1.50;;;11.60;99.90;;;;;;5113305;28;20019;-75
2023/03/22 01:12:17;;;;;;;7.80;2.35;;;11.40;99.90;;;;;;5113780;28;20020;-75
2023/03/22 01:14:43;;;;;;;6.53;2.33;;;11.30;99.90;;;;;;5114049;28;20118;-75
2023/03/22 01:17:09;;;;;;;9.63;3.03;;;11.10;99.90;;;;;;5113730;28;20038;-79
2023/03/22 01:19:36;;;;;;;11.13;2.55;;;11.00;99.90;;;;;;5113311;28;20025;-74
2023/03/22 01:22:03;;;;;;;16.77;3.53;;;10.90;99.90;;;;;;5113772;28;20082;-77
2023/03/22 01:24:29;;;;;;;16.60;3.35;;;10.80;99.90;;;;;;5112696;28;20417;-75
2023/03/22 01:26:55;;;;;;;14.82;2.70;;;10.70;99.90;;;;;;5113011;28;20020;-75
2023/03/22 01:29:22;;;;;;;14.85;3.28;;;10.60;99.90;;;;;;5108872;28;20032;-75
2023/03/22 01:31:47;;;;;;;18.92;3.35;;;10.50;99.90;;;;;;5093701;28;20031;-75
2023/03/22 01:34:13;;;;;;;13.05;3.17;;;10.50;99.90;;;;;;5092911;28;20383;-76
2023/03/22 01:36:39;;;;;;;26.35;3.80;;;10.30;99.90;;;;;;5094164;28;20051;-75
2023/03/22 01:39:05;;;;;;;22.55;4.18;;;10.30;99.90;;;;;;5093717;28;20386;-76
2023/03/22 01:41:34;;;;;;;23.23;5.35;;;10.20;99.90;;;;;;5092757;28;20417;-75
2023/03/22 01:44:06;;;;;;;16.58;3.92;;;10.20;99.90;;;;;;5091451;28;20479;-75
2023/03/22 01:46:32;;;;;;;20.80;3.80;;;10.10;99.90;;;;;;5091849;28;20047;-75
2023/03/22 01:48:59;;;;;;;17.73;3.42;;;10.00;99.90;;;;;;5092684;28;20427;-75
2023/03/22 01:51:26;;;;;;;19.77;3.95;;;10.00;99.90;;;;;;5092315;28;20100;-75
2023/03/22 01:53:56;;;;;;;19.67;4.25;;;10.00;99.90;;;;;;5092333;28;20135;-75
2023/03/22 01:56:27;;;;;;;15.63;3.53;;;9.80;99.90;;;;;;5091830;28;20111;-75
2023/03/22 01:58:54;;;;;;;25.25;4.10;;;9.80;99.90;;;;;;5092521;28;20024;-76
2023/03/22 02:01:20;;;;;;;17.27;3.22;;;9.70;99.90;;;;;;5092127;28;20163;-76
2023/03/22 02:03:54;;;;;;;20.80;3.55;;;9.60;99.90;;;;;;5092801;28;20115;-76
2023/03/22 02:06:21;;;;;;;24.20;4.47;;;9.60;99.90;;;;;;5091844;28;20042;-76
2023/03/22 02:08:48;;;;;;;14.82;3.63;;;9.40;99.90;;;;;;5092524;28;20486;-76
2023/03/22 02:11:16;;;;;;;22.13;4.07;;;9.50;99.90;;;;;;5090713;28;20028;-76
2023/03/22 02:14:05;;;;;;;19.80;3.42;;;9.40;99.90;;;;;;5092169;28;20039;-75
2023/03/22 02:16:42;;;;;;;17.98;3.50;;;9.30;99.90;;;;;;5080733;28;20043;-76
2023/03/22 02:19:41;;;;;;;21.38;4.65;;;9.30;99.90;;;;;;5092199;28;20016;-75
2023/03/22 02:22:37;;;;;;;27.90;4.75;;;9.20;99.90;;;;;;5090948;28;20051;-75
2023/03/22 02:25:09;;;;;;;26.00;4.50;;;9.10;99.90;;;;;;5091710;28;20470;-75
2023/03/22 02:27:56;;;;;;;23.13;3.85;;;9.10;99.90;;;;;;5091089;28;20135;-75
2023/03/22 02:30:54;;;;;;;23.35;4.28;;;9.10;99.90;;;;;;5091903;28;20081;-75
2023/03/22 02:33:57;;;;;;;22.70;4.32;;;9.00;99.90;;;;;;5092217;28;20028;-75
2023/03/22 02:36:42;;;;;;;17.30;3.80;;;8.90;99.90;;;;;;5091288;28;20020;-75
2023/03/22 02:39:20;;;;;;;23.85;4.60;;;8.90;99.90;;;;;;5092459;28;20031;-75
2023/03/22 02:42:18;;;;;;;20.67;4.30;;;8.80;99.90;;;;;;5092780;28;20043;-75
2023/03/22 02:45:18;;;;;;;26.98;4.32;;;8.80;99.90;;;;;;5092033;28;20111;-75
2023/03/22 02:48:02;;;;;;;22.98;3.90;;;8.70;99.90;;;;;;5092088;28;20031;-75
2023/03/22 02:50:43;;;;;;;25.40;4.43;;;8.70;99.90;;;;;;5091263;28;20043;-76
2023/03/22 02:53:40;;;;;;;18.83;4.30;;;8.70;99.90;;;;;;5092339;28;20077;-75
2023/03/22 02:56:09;;;;;;;17.23;4.25;;;8.60;99.90;;;;;;5095334;28;20403;-76
2023/03/22 02:58:44;;;;;;;23.85;4.53;;;8.60;99.90;;;;;;5091859;28;20028;-75
2023/03/22 03:01:24;;;;;;;17.50;4.10;;;8.60;99.90;;;;;;5091333;28;20028;-76
2023/03/22 03:03:55;;;;;;;20.95;3.47;;;8.60;99.90;;;;;;5091207;28;20069;-76
2023/03/22 03:06:24;;;;;;;16.75;3.45;;;8.60;99.90;;;;;;5090735;28;20123;-76
2023/03/22 03:08:52;;;;;;;18.88;3.83;;;8.50;99.90;;;;;;5091140;28;20112;-76
2023/03/22 03:11:19;;;;;;;20.58;3.67;;;8.50;99.90;;;;;;5090622;28;20052;-76
2023/03/22 03:13:49;;;;;;;21.50;4.30;;;8.40;99.90;;;;;;5091115;28;20100;-75
2023/03/22 03:16:25;;;;;;;21.27;3.90;;;8.40;99.90;;;;;;5090747;28;20076;-78
2023/03/22 03:19:07;;;;;;;26.52;4.28;;;8.40;99.90;;;;;;5091000;28;20016;-74
2023/03/22 03:21:41;;;;;;;29.83;5.05;;;8.40;99.90;;;;;;5090096;28;20826;-75
2023/03/22 03:24:34;;;;;;;19.90;3.63;;;8.30;99.90;;;;;;5090702;28;20184;-75
2023/03/22 03:27:08;;;;;;;17.88;3.65;;;8.20;99.90;;;;;;5090989;28;20449;-75
2023/03/22 03:30:01;;;;;;;21.85;3.13;;;8.20;99.90;;;;;;5090494;28;20101;-75
2023/03/22 03:32:42;;;;;;;18.08;4.03;;;8.10;99.90;;;;;;5090434;28;20085;-74
2023/03/22 03:35:26;;;;;;;17.15;3.45;;;8.10;99.90;;;;;;5090761;28;20363;-75
2023/03/22 03:37:57;;;;;;;13.45;2.83;;;8.00;99.90;;;;;;5089402;28;20424;-75
2023/03/22 03:40:32;;;;;;;20.63;3.73;;;8.00;99.90;;;;;;5090344;28;20020;-75
2023/03/22 03:43:01;;;;;;;16.77;3.58;;;8.00;99.90;;;;;;5090898;28;20256;-74
2023/03/22 03:45:28;;;;;;;19.50;4.05;;;8.00;99.90;;;;;;5090217;28;20176;-75
2023/03/22 03:47:59;;;;;;;16.05;3.13;;;8.00;99.90;;;;;;5089196;28;20062;-74
2023/03/22 03:50:25;;;;;;;18.33;3.67;;;7.80;99.90;;;;;;5090100;28;20020;-76
2023/03/22 03:52:53;;;;;;;19.02;3.72;;;7.90;99.90;;;;;;5090976;28;20070;-74
2023/03/22 03:55:20;;;;;;;19.30;3.28;;;7.90;99.90;;;;;;5089969;28;20549;-78
2023/03/22 03:57:46;;;;;;;17.40;3.40;;;7.80;99.90;;;;;;5090962;28;20024;-74
2023/03/22 04:00:15;;;;;;;18.05;3.78;;;7.80;99.90;;;;;;5090404;28;20221;-74
2023/03/22 04:02:42;;;;;;;15.60;3.08;;;7.80;99.90;;;;;;5089882;28;20042;-76
2023/03/22 04:05:09;;;;;;;16.88;3.03;;;7.70;99.90;;;;;;5090432;28;20080;-76
2023/03/22 04:07:35;;;;;;;19.48;3.50;;;7.80;99.90;;;;;;5090009;28;20024;-76
2023/03/22 04:10:00;;;;;;;14.70;3.30;;;7.70;99.90;;;;;;5090588;28;20508;-75
2023/03/22 04:12:26;;;;;;;14.32;3.33;;;7.80;99.90;;;;;;5089824;28;20031;-74
2023/03/22 04:14:52;;;;;;;15.10;3.30;;;7.60;99.90;;;;;;5090282;28;20398;-74
2023/03/22 04:17:17;;;;;;;15.57;3.53;;;7.60;99.90;;;;;;5090123;28;20036;-80
2023/03/22 04:19:46;;;;;;;17.70;3.70;;;7.60;99.90;;;;;;5090463;28;20102;-75
2023/03/22 04:22:13;;;;;;;17.45;3.17;;;7.60;99.90;;;;;;5090219;28;20051;-74
2023/03/22 04:24:48;;;;;;;20.67;3.97;;;7.60;99.90;;;;;;5089608;28;20135;-75
2023/03/22 04:27:15;;;;;;;19.85;3.15;;;7.60;99.90;;;;;;5090182;28;20127;-75
2023/03/22 04:29:47;;;;;;;17.25;3.70;;;7.60;99.90;;;;;;5089717;28;20027;-75
2023/03/22 04:32:21;;;;;;;16.77;2.53;;;7.60;99.90;;;;;;5090601;28;20036;-75
2023/03/22 04:34:47;;;;;;;15.68;3.05;;;7.50;99.90;;;;;;5090540;28;20481;-75
2023/03/22 04:37:14;;;;;;;13.50;3.22;;;7.50;99.90;;;;;;5090364;28;20099;-75
2023/03/22 04:39:40;;;;;;;18.05;3.45;;;7.60;99.90;;;;;;5089645;28;20058;-75
2023/03/22 04:42:06;;;;;;;17.90;3.00;;;7.50;99.90;;;;;;5088801;28;20144;-75
2023/03/22 04:44:32;;;;;;;14.05;3.72;;;7.50;99.90;;;;;;5088104;28;20511;-75
2023/03/22 04:46:57;;;;;;;16.15;3.75;;;7.50;99.90;;;;;;5090211;28;20332;-75
2023/03/22 04:49:23;;;;;;;17.13;3.53;;;7.50;99.90;;;;;;5089350;28;20028;-76
2023/03/22 04:51:49;;;;;;;22.85;3.90;;;7.50;99.90;;;;;;5089780;28;20041;-76
2023/03/22 04:54:15;;;;;;;18.85;3.65;;;7.50;99.90;;;;;;5088479;28;20032;-76
2023/03/22 04:56:41;;;;;;;19.83;3.60;;;7.50;99.90;;;;;;5089140;28;20207;-74
2023/03/22 04:59:06;;;;;;;19.40;4.03;;;7.40;99.90;;;;;;5090045;28;20463;-76
2023/03/22 05:01:34;;;;;;;23.17;4.32;;;7.50;99.90;;;;;;5091917;28;20416;-75
2023/03/22 05:03:59;;;;;;;20.33;3.45;;;7.50;99.90;;;;;;5093714;28;20047;-75
2023/03/22 05:06:26;;;;;;;18.13;3.55;;;7.50;99.90;;;;;;5092991;28;20020;-75
2023/03/22 05:08:51;;;;;;;26.27;3.47;;;7.50;99.90;;;;;;5093722;28;20443;-74
2023/03/22 05:11:23;;;;;;;20.23;3.95;;;7.60;99.90;;;;;;5093713;28;20082;-75
2023/03/22 05:13:48;;;;;;;17.55;3.05;;;7.50;99.90;;;;;;5093764;28;20360;-75
2023/03/22 05:16:14;;;;;;;16.25;3.33;;;7.50;99.90;;;;;;5093624;28;20031;-75
2023/03/22 05:18:44;;;;;;;16.95;4.18;;;7.50;99.90;;;;;;5092971;28;20489;-74
2023/03/22 05:21:16;;;;;;;15.63;2.88;;;7.40;99.90;;;;;;5093711;28;20032;-75
2023/03/22 05:23:43;;;;;;;16.70;3.30;;;7.50;99.90;;;;;;5093022;28;20502;-75
2023/03/22 05:26:14;;;;;;;18.58;2.88;;;7.50;99.90;;;;;;5093939;28;20094;-75
2023/03/22 05:28:41;;;;;;;15.70;3.25;;;7.50;99.90;;;;;;5093294;28;20109;-76
2023/03/22 05:31:07;;;;;;;16.98;2.92;;;7.40;99.90;;;;;;5093949;28;20081;-76
2023/03/22 05:33:33;;;;;;;17.70;3.80;;;7.50;99.90;;;;;;5092916;28;20032;-76
2023/03/22 05:36:00;;;;;;;15.48;3.13;;;7.40;99.90;;;;;;5093349;28;20506;-76
2023/03/22 05:38:26;;;;;;;17.17;3.85;;;7.50;99.90;;;;;;5092890;28;20069;-80
2023/03/22 05:40:52;;;;;;;25.08;3.97;;;7.50;99.90;;;;;;5093088;28;20020;-76
2023/03/22 05:43:18;;;;;;;18.30;3.65;;;7.50;99.90;;;;;;5092766;28;20495;-76
2023/03/22 05:45:44;;;;;;;18.30;3.78;;;7.40;99.90;;;;;;5092124;28;20619;-76
2023/03/22 05:48:10;;;;;;;20.75;4.00;;;7.40;99.90;;;;;;5092881;28;20111;-76
2023/03/22 05:50:36;;;;;;;19.60;4.68;;;7.40;99.90;;;;;;5092278;28;20431;-74
2023/03/22 05:53:02;;;;;;;22.10;4.13;;;7.40;99.90;;;;;;5091422;28;20363;-75
2023/03/22 05:55:30;;;;;;;22.63;3.78;;;7.40;99.90;;;;;;5092308;28;20032;-76
2023/03/22 05:57:57;;;;;;;20.70;3.88;;;7.40;99.90;;;;;;5092988;28;20485;-75
2023/03/22 06:00:23;;;;;;;19.17;4.10;;;7.40;99.90;;;;;;5092402;28;20156;-75
2023/03/22 06:02:51;;;;;;;28.08;4.45;;;7.40;99.90;;;;;;5093152;28;20073;-75
2023/03/22 06:05:17;;;;;;;25.40;4.10;;;7.50;99.90;;;;;;5093394;28;20032;-75
2023/03/22 06:07:44;;;;;;;20.90;3.67;;;7.50;99.90;;;;;;5092640;28;20027;-75
2023/03/22 06:10:14;;;;;;;17.40;4.13;;;7.50;99.90;;;;;;5093487;28;20028;-76
2023/03/22 06:12:40;;;;;;;23.10;3.50;;;7.50;99.90;;;;;;5092058;28;20055;-76
2023/03/22 06:15:07;;;;;;;23.67;3.80;;;7.50;99.90;;;;;;5094148;28;20036;-77
2023/03/22 06:17:33;;;;;;;19.02;4.32;;;7.50;99.90;;;;;;5092736;28;20111;-74
2023/03/22 06:19:59;;;;;;;17.77;3.85;;;7.50;99.90;;;;;;5092890;28;20086;-75
2023/03/22 06:22:25;;;;;;;13.75;4.10;;;7.60;99.90;;;;;;5091568;28;20021;-75
2023/03/22 06:24:51;;;;;;;23.33;4.43;;;7.50;99.90;;;;;;5090002;28;20131;-75
2023/03/22 06:27:17;;;;;;;19.63;3.42;;;7.50;99.90;;;;;;5090089;28;20131;-76
2023/03/22 06:29:43;;;;;;;25.40;4.40;;;7.40;99.90;;;;;;5092276;28;20031;-75
2023/03/22 06:32:10;;;;;;;22.23;4.65;;;7.40;99.90;;;;;;5092047;28;20032;-74
2023/03/22 06:34:36;;;;;;;25.23;4.45;;;7.40;99.90;;;;;;5089618;28;20032;-76
2023/03/22 06:37:01;;;;;;;21.75;4.13;;;7.40;99.90;;;;;;5091797;28;20031;-75
2023/03/22 06:39:27;;;;;;;20.88;4.63;;;7.40;99.90;;;;;;5091447;28;20028;-79
2023/03/22 06:41:53;;;;;;;17.45;3.90;;;7.40;99.90;;;;;;5091330;28;20177;-76
2023/03/22 06:44:19;;;;;;;21.15;4.45;;;7.40;99.90;;;;;;5091294;28;20121;-76
2023/03/22 06:46:44;;;;;;;22.45;4.00;;;7.40;99.90;;;;;;5090925;28;20115;-74
2023/03/22 06:49:10;;;;;;;28.35;4.15;;;7.50;99.90;;;;;;5091413;28;20027;-75
2023/03/22 06:51:36;;;;;;;19.38;3.70;;;7.50;99.90;;;;;;5090946;28;20027;-75
2023/03/22 06:54:01;;;;;;;20.02;3.90;;;7.50;99.90;;;;;;5090723;28;20042;-75
2023/03/22 06:56:27;;;;;;;32.67;4.40;;;7.60;99.90;;;;;;5090027;28;20073;-75
2023/03/22 06:58:53;;;;;;;22.58;3.83;;;7.60;99.90;;;;;;5090662;28;20073;-75
2023/03/22 07:01:20;;;;;;;22.70;4.00;;;7.60;99.90;;;;;;5091695;28;20182;-75
2023/03/22 07:03:46;;;;;;;20.23;4.40;;;7.70;99.90;;;;;;5091379;28;20024;-75
2023/03/22 07:06:12;;;;;;;21.27;3.60;;;7.80;99.90;;;;;;5091361;28;20027;-75
2023/03/22 07:08:37;;;;;;;19.98;4.07;;;7.80;99.90;;;;;;5090778;28;20483;-76
2023/03/22 07:11:04;;;;;;;21.60;4.40;;;7.90;99.90;;;;;;5091666;28;20099;-76
2023/03/22 07:13:30;;;;;;;18.17;5.53;;;8.00;99.90;;;;;;5091412;28;20035;-78
2023/03/22 07:15:58;;;;;;;24.10;4.05;;;8.00;99.90;;;;;;5090752;28;20028;-74
2023/03/22 07:18:24;;;;;;;24.25;4.65;;;8.10;99.90;;;;;;5090877;28;20024;-75
2023/03/22 07:20:50;;;;;;;31.27;4.18;;;8.20;99.90;;;;;;5090710;28;20039;-75
2023/03/22 07:23:16;;;;;;;22.05;4.20;;;8.20;99.90;;;;;;5090904;28;20132;-75
2023/03/22 07:25:43;;;;;;;15.32;3.78;;;8.30;99.90;;;;;;5090258;28;20181;-76
2023/03/22 07:28:10;;;;;;;28.90;5.03;;;8.40;99.90;;;;;;5090892;28;20753;-75
2023/03/22 07:30:36;;;;;;;17.98;4.72;;;8.50;99.90;;;;;;5090543;28;20020;-76
2023/03/22 07:33:03;;;;;;;24.15;4.20;;;8.50;99.90;;;;;;5091216;28;20504;-76
2023/03/22 07:35:29;;;;;;;15.85;3.53;;;8.50;99.90;;;;;;5090843;28;20112;-76
2023/03/22 07:37:55;;;;;;;29.70;5.97;;;8.60;99.90;;;;;;5090067;28;20020;-76
2023/03/22 07:40:22;;;;;;;22.83;4.35;;;8.70;99.90;;;;;;5090988;28;20028;-76
2023/03/22 07:42:48;;;;;;;17.55;4.00;;;8.80;99.90;;;;;;5090101;28;20459;-76
2023/03/22 07:45:14;;;;;;;28.83;4.22;;;8.90;99.90;;;;;;5090519;28;20040;-74
2023/03/22 07:47:39;;;;;;;20.52;4.95;;;8.90;99.90;;;;;;5089989;28;20028;-75
2023/03/22 07:50:06;;;;;;;25.42;5.25;;;9.00;99.90;;;;;;5089330;28;20031;-75
2023/03/22 07:52:31;;;;;;;23.50;4.72;;;9.10;99.90;;;;;;5090594;28;20463;-75
2023/03/22 07:54:57;;;;;;;20.50;5.03;;;9.20;99.90;;;;;;5090346;28;20140;-76
2023/03/22 07:57:23;;;;;;;27.65;4.88;;;9.10;99.90;;;;;;5091197;28;20027;-75
2023/03/22 07:59:49;;;;;;;21.58;4.70;;;8.90;99.90;;;;;;5089949;28;20374;-75
2023/03/22 08:02:14;;;;;;;18.17;4.75;;;8.80;99.90;;;;;;5091062;28;20107;-74
2023/03/22 08:04:40;;;;;;;22.88;4.15;;;8.80;99.90;;;;;;5090168;28;20671;-76
2023/03/22 08:07:08;;;;;;;21.85;4.63;;;8.90;99.90;;;;;;5090673;28;20060;-76
2023/03/22 08:09:35;;;;;;;23.05;5.03;;;8.90;99.90;;;;;;5090373;28;20481;-80
2023/03/22 08:12:01;;;;;;;24.33;4.85;;;9.10;99.90;;;;;;5089931;28;20034;-74
2023/03/22 08:14:27;;;;;;;20.88;4.68;;;9.20;99.90;;;;;;5090827;28;20028;-75
2023/03/22 08:16:52;;;;;;;29.63;4.72;;;9.30;99.90;;;;;;5088469;28;20061;-76
2023/03/22 08:19:18;;;;;;;20.90;3.80;;;9.40;99.90;;;;;;5090545;28;20131;-76
2023/03/22 08:21:44;;;;;;;23.77;4.05;;;9.50;99.90;;;;;;5088805;28;20031;-76
2023/03/22 08:24:10;;;;;;;24.35;4.63;;;9.70;99.90;;;;;;5090943;28;20142;-76
2023/03/22 08:26:36;;;;;;;18.85;4.28;;;9.80;99.90;;;;;;5090509;28;20377;-80
2023/03/22 08:29:02;;;;;;;20.60;3.92;;;9.80;99.90;;;;;;5068556;28;20383;-78
2023/03/22 08:31:28;;;;;;;25.20;4.78;;;9.80;99.90;;;;;;5070166;28;20035;-76
2023/03/22 08:33:54;;;;;;;17.20;3.50;;;9.90;99.90;;;;;;5069805;28;20432;-76
2023/03/22 08:36:24;;;;;;;28.63;5.78;;;10.00;99.90;;;;;;5072081;28;20089;-76
2023/03/22 08:38:51;;;;;;;28.98;4.80;;;10.00;99.90;;;;;;5078477;28;20071;-77
2023/03/22 08:41:16;;;;;;;20.23;4.25;;;10.00;99.90;;;;;;5082358;28;20023;-77
2023/03/22 08:43:42;;;;;;;20.23;4.35;;;10.10;99.90;;;;;;5081614;28;20028;-77
2023/03/22 08:46:08;;;;;;;27.08;4.60;;;10.10;99.90;;;;;;5088260;28;20027;-75
2023/03/22 08:48:37;;;;;;;26.80;5.53;;;10.10;99.90;;;;;;5076083;28;20033;-76
2023/03/22 08:51:05;;;;;;;22.42;4.50;;;10.30;99.90;;;;;;5073566;28;20032;-75
2023/03/22 08:53:31;;;;;;;22.17;4.30;;;10.40;99.90;;;;;;5073628;28;20111;-76
2023/03/22 08:56:00;;;;;;;18.85;4.15;;;10.40;99.90;;;;;;5071809;28;20075;-76
2023/03/22 08:58:27;;;;;;;27.45;5.22;;;10.40;99.90;;;;;;5073217;28;20478;-75
2023/03/22 09:00:53;;;;;;;19.30;5.22;;;10.30;99.90;;;;;;5072679;28;20371;-75
2023/03/22 09:03:18;;;;;;;20.95;4.28;;;10.30;99.90;;;;;;5073003;28;20036;-76
2023/03/22 09:05:44;;;;;;;22.02;4.05;;;10.40;99.90;;;;;;5072477;28;20436;-77
2023/03/22 09:08:10;;;;;;;19.80;4.50;;;10.40;99.90;;;;;;5073048;28;20440;-76
2023/03/22 09:10:38;;;;;;;23.77;5.07;;;10.50;99.90;;;;;;5072752;28;20025;-75
2023/03/22 09:13:04;;;;;;;26.67;5.10;;;10.50;99.90;;;;;;5072539;28;20051;-75
2023/03/22 09:15:30;;;;;;;24.40;5.43;;;10.60;99.90;;;;;;5072596;28;20558;-75
2023/03/22 09:17:56;;;;;;;22.25;4.40;;;10.70;99.90;;;;;;5071981;28;20033;-76
2023/03/22 09:20:24;;;;;;;17.95;4.20;;;10.80;99.90;;;;;;5071386;28;20020;-75
2023/03/22 09:22:51;;;;;;;26.38;4.30;;;10.90;99.90;;;;;;5071225;28;20029;-75
2023/03/22 09:25:24;;;;;;;19.13;4.35;;;11.10;99.90;;;;;;5072742;28;20036;-75
2023/03/22 09:27:50;;;;;;;25.35;5.05;;;11.20;99.90;;;;;;5082439;28;20163;-75
2023/03/22 09:30:15;;;;;;;18.15;4.13;;;11.10;99.90;;;;;;5093155;28;20136;-75
2023/03/22 09:32:41;;;;;;;27.17;5.05;;;11.00;99.90;;;;;;5092557;28;20020;-76
2023/03/22 09:35:07;;;;;;;28.05;4.80;;;11.00;99.90;;;;;;5092708;28;20032;-76
2023/03/22 09:37:33;;;;;;;21.55;4.38;;;10.90;99.90;;;;;;5092830;28;20454;-76
2023/03/22 09:39:58;;;;;;;22.20;4.35;;;10.80;99.90;;;;;;5092144;28;20543;-76
2023/03/22 09:42:32;;;;;;;19.00;4.18;;;10.70;99.90;;;;;;5092631;28;20021;-76
2023/03/22 09:44:59;;;;;;;19.58;4.30;;;10.70;99.90;;;;;;5092283;28;20043;-75
2023/03/22 09:47:36;;;;;;;24.63;4.28;;;10.60;99.90;;;;;;5092810;28;20115;-76
2023/03/22 09:50:13;;;;;;;20.05;4.22;;;10.60;99.90;;;;;;5092014;28;20028;-76
2023/03/22 09:52:39;;;;;;;25.75;5.78;;;10.50;99.90;;;;;;5091456;28;20032;-75
2023/03/22 09:55:36;;;;;;;24.02;4.30;;;10.60;99.90;;;;;;5092131;28;20471;-76
2023/03/22 09:58:25;;;;;;;24.77;4.63;;;10.50;99.90;;;;;;5085463;28;20860;-76
2023/03/22 10:00:56;;;;;;;28.15;5.50;;;10.50;99.90;;;;;;5093109;28;20028;-76
2023/03/22 10:03:24;;;;;;;28.05;5.75;;;10.50;99.90;;;;;;5093196;28;20312;-76
2023/03/22 10:06:09;;;;;;;23.02;4.05;;;10.40;99.90;;;;;;5092218;28;20043;-76
2023/03/22 10:09:02;;;;;;;25.20;4.55;;;10.40;99.90;;;;;;5092664;28;20496;-78
2023/03/22 10:11:36;;;;;;;22.85;4.80;;;10.30;99.90;;;;;;5093054;28;20035;-75
2023/03/22 10:14:27;;;;;;;26.13;6.00;;;10.40;99.90;;;;;;5091664;28;20115;-77
2023/03/22 10:16:55;;;;;;;24.17;4.88;;;10.50;99.90;;;;;;5091593;28;20016;-76
2023/03/22 10:19:36;;;;;;;19.67;4.93;;;10.70;99.90;;;;;;5091958;28;20028;-76
2023/03/22 10:22:05;;;;;;;21.15;4.35;;;10.80;99.90;;;;;;5091204;28;20204;-76
2023/03/22 10:24:34;;;;;;;32.05;5.43;;;11.00;99.90;;;;;;5091615;28;20032;-76
2023/03/22 10:27:00;;;;;;;21.58;4.32;;;11.10;99.90;;;;;;5091277;28;20055;-75
2023/03/22 10:29:29;;;;;;;29.38;5.63;;;11.30;99.90;;;;;;5091970;28;20020;-76
2023/03/22 10:32:05;;;;;;;24.92;4.78;;;11.50;99.90;;;;;;5090044;28;20605;-77
2023/03/22 10:34:31;;;;;;;22.75;4.40;;;11.70;99.90;;;;;;5090748;28;20040;-76
2023/03/22 10:37:00;;;;;;;22.08;4.60;;;11.80;99.90;;;;;;5091046;28;20443;-76
2023/03/22 10:39:39;;;;;;;26.13;4.50;;;12.00;99.90;;;;;;5092012;28;20024;-75
2023/03/22 10:42:11;;;;;;;31.30;5.00;;;12.10;99.90;;;;;;5091124;28;20028;-75
2023/03/22 10:44:58;;;;;;;28.63;4.40;;;12.10;99.90;;;;;;5090006;28;20390;-75
2023/03/22 10:47:53;;;;;;;27.75;4.50;;;12.00;99.90;;;;;;5091506;28;20081;-76
2023/03/22 10:50:27;;;;;;;24.27;4.07;;;12.00;99.90;;;;;;5082694;28;20036;-76
2023/03/22 10:53:14;;;;;;;21.88;3.92;;;11.90;99.90;;;;;;5090468;28;20068;-76
2023/03/22 10:55:41;;;;;;;27.23;5.32;;;11.90;99.90;;;;;;5091093;28;20483;-76
2023/03/22 10:58:13;;;;;;;23.10;4.88;;;12.00;99.90;;;;;;5091060;28;20431;-76
2023/03/22 11:00:47;;;;;;;19.90;4.20;;;12.00;99.90;;;;;;5090040;28;20442;-75
2023/03/22 11:03:35;;;;;;;27.13;4.97;;;11.90;99.90;;;;;;5091548;28;20027;-75
2023/03/22 11:06:12;;;;;;;30.48;5.82;;;12.00;99.90;;;;;;5090746;28;20127;-75
2023/03/22 11:09:00;;;;;;;23.08;4.60;;;12.10;99.90;;;;;;5091591;28;20042;-75
2023/03/22 11:11:33;;;;;;;24.65;4.95;;;12.20;99.90;;;;;;5091446;28;20381;-75
2023/03/22 11:14:14;;;;;;;20.52;4.93;;;12.20;99.90;;;;;;5090703;28;20060;-75
2023/03/22 11:16:49;;;;;;;25.05;4.88;;;12.30;99.90;;;;;;5091789;28;20034;-76
2023/03/22 11:19:41;;;;;;;21.52;5.20;;;12.30;99.90;;;;;;5092002;28;20036;-76
2023/03/22 11:22:23;;;;;;;21.50;4.80;;;12.30;99.90;;;;;;5091042;28;20123;-76
2023/03/22 11:24:50;;;;;;;24.58;4.78;;;12.30;99.90;;;;;;5090589;28;20032;-75
2023/03/22 11:27:25;;;;;;;24.63;5.63;;;12.20;99.90;;;;;;5092649;28;20044;-75
2023/03/22 11:29:56;;;;;;;17.63;4.00;;;12.20;99.90;;;;;;5092031;28;20063;-75
2023/03/22 11:32:21;;;;;;;62.88;9.13;;;12.20;99.90;;;;;;5092695;28;20608;-75
2023/03/22 11:34:57;;;;;;;43.53;5.82;;;12.10;99.90;;;;;;5091774;28;20127;-77
2023/03/22 11:37:23;;;;;;;18.83;3.47;;;12.10;99.90;;;;;;5092389;28;20027;-75
2023/03/22 11:39:48;;;;;;;21.52;3.97;;;12.10;99.90;;;;;;5090166;28;20020;-77
2023/03/22 11:42:19;;;;;;;24.45;4.38;;;12.00;99.90;;;;;;5091625;28;20051;-76
2023/03/22 11:44:45;;;;;;;16.52;3.75;;;12.00;99.90;;;;;;5091676;28;20028;-80
2023/03/22 11:47:12;;;;;;;17.02;3.05;;;12.10;99.90;;;;;;5091957;28;20024;-76
2023/03/22 11:49:43;;;;;;;12.35;3.15;;;12.00;99.90;;;;;;5092025;28;20035;-76
2023/03/22 11:52:14;;;;;;;16.48;3.17;;;12.10;99.90;;;;;;5091192;28;20057;-76
2023/03/22 11:54:41;;;;;;;12.93;2.70;;;12.10;99.90;;;;;;5090181;28;20101;-76
2023/03/22 11:57:23;;;;;;;14.90;2.40;;;12.00;99.90;;;;;;5090988;28;20541;-76
2023/03/22 11:59:54;;;;;;;9.27;2.67;;;12.00;99.90;;;;;;5090898;28;20489;-77
2023/03/22 12:02:25;;;;;;;7.60;2.53;;;11.90;99.90;;;;;;5091996;28;20032;-76
2023/03/22 12:05:01;;;;;;;9.95;2.55;;;11.90;99.90;;;;;;5090723;28;20132;-76
2023/03/22 12:07:30;;;;;;;7.25;1.92;;;11.90;99.90;;;;;;5091710;28;20030;-76
2023/03/22 12:10:29;;;;;;;8.68;2.45;;;12.10;99.90;;;;;;5090776;28;20111;-76
2023/03/22 12:13:03;;;;;;;11.43;2.88;;;12.10;99.90;;;;;;5100183;28;20028;-76
2023/03/22 12:15:34;;;;;;;7.95;1.77;;;12.20;99.90;;;;;;5112968;28;20126;-76
2023/03/22 12:18:04;;;;;;;6.07;1.98;;;12.20;99.90;;;;;;5115288;28;20051;-76
2023/03/22 12:20:58;;;;;;;10.40;2.03;;;12.30;99.90;;;;;;5115886;28;20040;-76
2023/03/22 12:23:30;;;;;;;8.27;2.40;;;12.30;99.90;;;;;;5114655;28;20031;-75
2023/03/22 12:26:20;;;;;;;6.75;2.08;;;12.40;99.90;;;;;;5114824;28;20127;-76
2023/03/22 12:28:57;;;;;;;7.72;1.98;;;12.50;99.90;;;;;;5114415;28;20053;-75
2023/03/22 12:31:30;;;;;;;7.65;1.75;;;12.60;99.90;;;;;;5116031;28;20093;-76
2023/03/22 12:34:06;;;;;;;7.47;1.42;;;12.60;99.90;;;;;;5115898;28;20080;-75
2023/03/22 12:36:49;;;;;;;8.00;2.03;;;12.70;99.90;;;;;;5117621;28;20028;-76
2023/03/22 12:39:27;;;;;;;;;;;12.70;99.90;;;;;;5116757;28;20030;-76
2023/03/22 12:41:59;;;;;;;5.65;1.40;;;12.90;99.90;;;;;;5115470;28;19903;-77
2023/03/22 12:44:40;;;;;;;8.25;2.10;;;13.00;99.90;;;;;;5116003;28;20031;-76
2023/03/22 12:47:12;;;;;;;8.57;2.20;;;13.10;99.90;;;;;;5113921;27;20556;-76
2023/03/22 12:49:52;;;;;;;5.50;1.77;;;13.20;99.90;;;;;;5115965;28;20032;-77
2023/03/22 12:52:38;;;;;;;10.70;1.88;;;13.30;99.90;;;;;;5114208;28;20024;-76
2023/03/22 12:55:05;;;;;;;9.75;1.70;;;13.30;99.90;;;;;;5095551;28;20032;-77
2023/03/22 12:57:31;;;;;;;10.07;1.98;;;13.30;99.90;;;;;;5094550;28;20030;-76
2023/03/22 13:00:06;;;;;;;10.23;2.83;;;13.20;99.90;;;;;;5093741;28;20107;-79